createdAt,value
2018-11-26T00:00:03.331Z,97997.55
2018-11-26T00:02:30.662Z,98008.31
2018-11-26T00:04:57.954Z,98010.67
2018-11-26T00:07:25.167Z,98013.81
2018-11-26T00:09:56.990Z,98011.20
2018-11-26T00:12:24.205Z,98009.89
2018-11-26T00:14:51.413Z,98013.84
2018-11-26T00:17:18.749Z,98016.20
2018-11-26T00:19:46.003Z,98012.50
2018-11-26T00:22:13.213Z,98014.08
2018-11-26T00:24:40.467Z,98014.89
2018-11-26T00:27:07.719Z,98014.34
2018-11-26T00:29:34.971Z,98002.79
2018-11-26T00:32:02.176Z,97998.06
2018-11-26T00:34:29.443Z,97985.47
2018-11-26T00:36:56.637Z,97988.36
2018-11-26T00:39:23.880Z,97988.61
2018-11-26T00:41:51.162Z,97990.18
2018-11-26T00:44:18.400Z,97986.27
2018-11-26T00:46:45.606Z,97981.02
2018-11-26T00:49:12.884Z,97976.80
2018-11-26T00:51:40.139Z,97980.47
2018-11-26T00:54:07.709Z,97978.09
2018-11-26T00:56:34.863Z,97979.43
2018-11-26T00:59:02.016Z,97982.83
2018-11-26T01:01:29.308Z,97986.78
2018-11-26T01:03:56.502Z,97983.09
2018-11-26T01:06:23.735Z,97982.33
2018-11-26T01:08:50.922Z,97979.16
2018-11-26T01:11:18.076Z,97979.67
2018-11-26T01:13:45.309Z,97976.80
2018-11-26T01:16:12.604Z,97982.56
2018-11-26T01:18:39.931Z,97979.94
2018-11-26T01:21:07.125Z,97980.20
2018-11-26T01:23:34.347Z,97978.11
2018-11-26T01:26:01.572Z,97980.47
2018-11-26T01:28:28.733Z,97985.74
2018-11-26T01:30:55.928Z,97991.24
2018-11-26T01:33:23.150Z,97986.52
2018-11-26T01:35:50.396Z,97991.25
2018-11-26T01:38:17.635Z,97992.56
2018-11-26T01:40:47.781Z,97993.33
2018-11-26T01:43:14.959Z,97990.45
2018-11-26T01:45:42.126Z,97996.50
2018-11-26T01:48:09.401Z,97992.02
2018-11-26T01:50:36.568Z,97996.49
2018-11-26T01:53:05.059Z,97995.70
2018-11-26T01:55:32.859Z,97997.53
2018-11-26T01:58:01.096Z,97998.86
2018-11-26T02:00:28.388Z,97998.33
2018-11-26T02:02:55.597Z,98003.32
2018-11-26T02:05:22.863Z,97991.26
2018-11-26T02:07:50.854Z,97994.41
2018-11-26T02:10:19.093Z,97993.62
2018-11-26T02:12:46.299Z,97992.55
2018-11-26T02:15:24.970Z,97990.20
2018-11-26T02:17:52.157Z,97987.58
2018-11-26T02:20:19.858Z,97985.72
2018-11-26T02:22:47.337Z,97983.34
2018-11-26T02:25:14.567Z,97984.66
2018-11-26T02:27:41.744Z,97976.78
2018-11-26T02:30:08.894Z,97974.16
2018-11-26T02:32:36.142Z,97971.02
2018-11-26T02:35:03.630Z,97969.97
2018-11-26T02:37:31.540Z,97968.38
2018-11-26T02:39:58.704Z,97960.23
2018-11-26T02:42:25.915Z,97964.96
2018-11-26T02:44:53.090Z,97957.59
2018-11-26T02:47:20.278Z,97959.70
2018-11-26T02:49:47.470Z,97953.94
2018-11-26T02:52:14.642Z,97952.10
2018-11-26T02:54:42.024Z,97955.49
2018-11-26T02:57:09.178Z,97953.94
2018-11-26T02:59:36.489Z,97952.62
2018-11-26T03:02:03.682Z,97953.14
2018-11-26T03:04:30.883Z,97948.45
2018-11-26T03:06:58.070Z,97940.30
2018-11-26T03:09:25.394Z,97942.39
2018-11-26T03:11:52.664Z,97941.36
2018-11-26T03:14:19.847Z,97937.69
2018-11-26T03:16:47.038Z,97933.47
2018-11-26T03:19:14.274Z,97927.97
2018-11-26T03:21:41.469Z,97937.14
2018-11-26T03:24:08.638Z,97934.79
2018-11-26T03:26:35.766Z,97935.08
2018-11-26T03:29:02.974Z,97938.73
2018-11-26T03:31:30.191Z,97941.88
2018-11-26T03:33:57.304Z,97942.66
2018-11-26T03:36:24.474Z,97942.93
2018-11-26T03:38:53.769Z,97941.09
2018-11-26T03:41:21.501Z,97943.73
2018-11-26T03:43:48.685Z,97948.46
2018-11-26T03:46:16.610Z,97945.57
2018-11-26T03:48:44.494Z,97947.13
2018-11-26T03:51:11.674Z,97945.05
2018-11-26T03:53:38.824Z,97936.89
2018-11-26T03:56:06.482Z,97948.96
2018-11-26T03:58:33.671Z,97952.91
2018-11-26T04:01:01.000Z,97947.14
2018-11-26T04:03:28.212Z,97948.72
2018-11-26T04:05:55.405Z,97959.22
2018-11-26T04:08:22.622Z,97956.32
2018-11-26T04:10:49.765Z,97956.58
2018-11-26T04:13:17.730Z,97956.33
2018-11-26T04:15:44.902Z,97946.34
2018-11-26T04:18:12.095Z,97940.58
2018-11-26T04:20:39.292Z,97945.02
2018-11-26T04:23:06.476Z,97949.77
2018-11-26T04:25:33.726Z,97950.81
2018-11-26T04:28:00.877Z,97948.44
2018-11-26T04:30:28.091Z,97956.05
2018-11-26T04:32:55.383Z,97946.87
2018-11-26T04:35:22.537Z,97950.01
2018-11-26T04:37:49.799Z,97951.57
2018-11-26T04:40:17.007Z,97955.24
2018-11-26T04:42:44.253Z,97951.33
2018-11-26T04:45:11.522Z,97947.12
2018-11-26T04:47:39.010Z,97939.48
2018-11-26T04:50:09.024Z,97938.22
2018-11-26T04:52:36.354Z,97943.73
2018-11-26T04:55:03.560Z,97935.86
2018-11-26T04:57:30.858Z,97935.32
2018-11-26T04:59:58.067Z,97932.43
2018-11-26T05:02:25.362Z,97937.95
2018-11-26T05:04:52.519Z,97946.59
2018-11-26T05:07:19.747Z,97937.94
2018-11-26T05:09:46.920Z,97940.06
2018-11-26T05:12:14.143Z,97942.39
2018-11-26T05:14:41.272Z,97941.88
2018-11-26T05:17:08.445Z,97945.56
2018-11-26T05:19:35.638Z,97936.91
2018-11-26T05:22:02.791Z,97937.95
2018-11-26T05:24:29.939Z,97941.09
2018-11-26T05:26:57.093Z,97931.64
2018-11-26T05:29:24.238Z,97939.52
2018-11-26T05:31:51.405Z,97939.27
2018-11-26T05:34:18.619Z,97720.73
2018-11-26T05:36:45.722Z,97943.73
2018-11-26T05:39:12.946Z,97945.56
2018-11-26T05:41:40.154Z,97946.34
2018-11-26T05:44:07.343Z,97944.23
2018-11-26T05:46:35.424Z,97941.34
2018-11-26T05:49:02.644Z,97946.62
2018-11-26T05:51:29.897Z,97946.35
2018-11-26T05:53:57.160Z,97948.72
2018-11-26T05:56:24.406Z,97951.08
2018-11-26T05:58:51.547Z,97953.16
2018-11-26T06:01:18.729Z,97945.58
2018-11-26T06:03:45.990Z,97942.41
2018-11-26T06:06:13.343Z,97948.97
2018-11-26T06:08:40.668Z,97952.38
2018-11-26T06:11:08.048Z,97949.48
2018-11-26T06:13:35.498Z,97951.34
2018-11-26T06:16:02.681Z,97953.97
2018-11-26T06:18:29.900Z,97962.09
2018-11-26T06:20:57.134Z,97961.30
2018-11-26T06:23:24.319Z,97961.06
2018-11-26T06:25:51.796Z,97965.77
2018-11-26T06:28:19.096Z,97972.33
2018-11-26T06:30:46.342Z,97972.06
2018-11-26T06:33:13.695Z,97975.50
2018-11-26T06:35:40.980Z,97978.64
2018-11-26T06:38:08.228Z,97978.89
2018-11-26T06:40:35.503Z,97975.22
2018-11-26T06:43:02.969Z,97976.02
2018-11-26T06:45:30.294Z,97979.42
2018-11-26T06:47:57.547Z,97981.79
2018-11-26T06:50:24.865Z,97971.83
2018-11-26T06:52:52.565Z,97972.59
2018-11-26T06:55:20.399Z,97979.43
2018-11-26T06:57:47.778Z,97983.88
2018-11-26T07:00:16.438Z,97987.30
2018-11-26T07:02:43.690Z,97994.90
2018-11-26T07:05:15.776Z,97997.78
2018-11-26T07:07:44.049Z,98001.72
2018-11-26T07:10:13.067Z,98001.20
2018-11-26T07:12:40.384Z,97996.49
2018-11-26T07:15:14.109Z,98000.67
2018-11-26T07:17:41.539Z,97999.09
2018-11-26T07:20:12.071Z,98006.45
2018-11-26T07:22:39.627Z,98004.59
2018-11-26T07:25:09.173Z,98004.87
2018-11-26T07:27:36.750Z,98000.67
2018-11-26T07:30:06.791Z,98004.36
2018-11-26T07:32:33.990Z,98000.42
2018-11-26T07:35:01.236Z,98011.97
2018-11-26T07:37:28.632Z,98014.59
2018-11-26T07:39:56.804Z,98017.47
2018-11-26T07:42:24.097Z,98023.52
2018-11-26T07:44:51.382Z,98024.55
2018-11-26T07:47:18.729Z,98019.56
2018-11-26T07:49:46.856Z,98030.06
2018-11-26T07:52:14.046Z,98036.07
2018-11-26T07:54:42.051Z,98036.03
2018-11-26T07:57:09.448Z,98046.80
2018-11-26T07:59:36.722Z,98051.27
2018-11-26T08:02:04.539Z,98057.08
2018-11-26T08:04:31.863Z,98060.48
2018-11-26T08:06:59.119Z,98057.59
2018-11-26T08:09:26.464Z,98065.50
2018-11-26T08:11:53.779Z,98064.98
2018-11-26T08:14:21.441Z,98067.85
2018-11-26T08:16:48.937Z,98071.00
2018-11-26T08:19:17.030Z,98075.75
2018-11-26T08:21:44.311Z,98072.34
2018-11-26T08:24:11.745Z,98077.84
2018-11-26T08:26:39.132Z,98073.66
2018-11-26T08:29:06.441Z,98083.31
2018-11-26T08:31:34.345Z,98084.39
2018-11-26T08:34:01.512Z,98084.70
2018-11-26T08:36:38.245Z,98086.54
2018-11-26T08:39:10.502Z,98080.75
2018-11-26T08:41:42.362Z,98094.69
2018-11-26T08:44:11.586Z,98099.95
2018-11-26T08:46:44.462Z,98101.28
2018-11-26T08:49:16.627Z,98103.12
2018-11-26T08:51:43.882Z,98099.18
2018-11-26T08:54:11.418Z,98100.27
2018-11-26T08:56:39.369Z,98097.63
2018-11-26T08:59:06.729Z,98098.20
2018-11-26T09:01:39.511Z,98100.00
2018-11-26T09:04:09.703Z,98031.94
2018-11-26T09:06:37.470Z,98107.08
2018-11-26T09:09:08.147Z,98111.82
2018-11-26T09:11:35.630Z,98095.55
2018-11-26T09:14:03.270Z,98103.45
2018-11-26T09:16:30.474Z,98103.72
2018-11-26T09:18:57.910Z,98105.83
2018-11-26T09:21:25.100Z,98106.61
2018-11-26T09:23:52.560Z,98113.96
2018-11-26T09:26:19.892Z,98115.02
2018-11-26T09:28:47.201Z,98119.22
2018-11-26T09:31:14.370Z,98117.38
2018-11-26T09:33:42.277Z,98121.58
2018-11-26T09:36:09.626Z,98117.90
2018-11-26T09:38:37.000Z,98113.19
2018-11-26T09:41:04.428Z,98123.14
2018-11-26T09:43:31.708Z,98128.94
2018-11-26T09:45:59.247Z,98130.79
2018-11-26T09:48:26.554Z,98124.22
2018-11-26T09:50:53.823Z,98127.11
2018-11-26T09:53:21.918Z,98120.78
2018-11-26T09:55:49.293Z,98124.20
2018-11-26T09:58:16.712Z,98125.52
2018-11-26T10:00:44.121Z,98120.02
2018-11-26T10:03:11.550Z,98117.63
2018-11-26T10:05:38.868Z,98115.80
2018-11-26T10:08:06.138Z,98115.80
2018-11-26T10:10:33.503Z,98109.48
2018-11-26T10:13:00.988Z,98120.01
2018-11-26T10:15:34.856Z,98112.92
2018-11-26T10:18:02.275Z,98113.44
2018-11-26T10:20:29.577Z,98110.56
2018-11-26T10:22:57.695Z,98111.86
2018-11-26T10:25:25.125Z,98105.02
2018-11-26T10:27:52.999Z,98106.86
2018-11-26T10:30:23.238Z,98103.98
2018-11-26T10:32:50.625Z,98107.91
2018-11-26T10:35:19.401Z,98106.07
2018-11-26T10:37:47.317Z,98107.40
2018-11-26T10:40:21.516Z,98109.73
2018-11-26T10:42:49.009Z,98108.71
2018-11-26T10:45:18.359Z,98110.27
2018-11-26T10:47:45.691Z,98106.61
2018-11-26T10:50:14.150Z,98105.55
2018-11-26T10:52:42.836Z,98111.88
2018-11-26T10:55:11.997Z,98105.28
2018-11-26T10:57:40.407Z,98108.71
2018-11-26T11:00:17.284Z,98100.53
2018-11-26T11:02:45.760Z,98108.15
2018-11-26T11:05:13.116Z,98107.11
2018-11-26T11:07:48.733Z,98113.95
2018-11-26T11:10:32.677Z,98112.91
2018-11-26T11:13:01.365Z,98108.45
2018-11-26T11:15:32.100Z,98112.64
2018-11-26T11:17:59.432Z,98111.88
2018-11-26T11:20:28.785Z,98115.52
2018-11-26T11:22:56.155Z,98116.33
2018-11-26T11:25:24.008Z,98110.81
2018-11-26T11:27:51.564Z,98111.07
2018-11-26T11:30:20.901Z,98117.63
2018-11-26T11:32:48.280Z,98112.90
2018-11-26T11:35:16.054Z,98113.42
2018-11-26T11:37:44.235Z,98107.66
2018-11-26T11:40:14.900Z,98103.70
2018-11-26T11:42:42.896Z,98101.84
2018-11-26T11:45:11.635Z,98103.68
2018-11-26T11:47:39.692Z,98106.59
2018-11-26T11:50:08.795Z,98101.88
2018-11-26T11:52:36.169Z,98100.26
2018-11-26T11:55:03.988Z,97879.41
2018-11-26T11:57:32.034Z,98099.24
2018-11-26T11:59:59.381Z,98107.92
2018-11-26T12:02:26.757Z,98108.17
2018-11-26T12:04:54.752Z,98102.39
2018-11-26T12:07:23.896Z,98107.91
2018-11-26T12:09:51.325Z,98115.01
2018-11-26T12:12:18.637Z,98112.90
2018-11-26T12:14:46.660Z,98120.02
2018-11-26T12:17:14.402Z,98120.78
2018-11-26T12:19:41.885Z,98123.94
2018-11-26T12:22:09.202Z,98123.15
2018-11-26T12:24:36.667Z,98125.25
2018-11-26T12:27:05.085Z,98131.30
2018-11-26T12:29:33.826Z,98123.42
2018-11-26T12:32:01.181Z,98127.38
2018-11-26T12:34:28.586Z,98125.78
2018-11-26T12:36:57.890Z,98130.25
2018-11-26T12:39:23.291Z,98127.63
2018-11-26T12:41:50.615Z,98126.31
2018-11-26T12:44:17.853Z,98128.91
2018-11-26T12:46:45.235Z,98133.13
2018-11-26T12:49:12.522Z,98140.23
2018-11-26T12:51:39.848Z,98130.77
2018-11-26T12:54:07.140Z,98136.58
2018-11-26T12:56:34.533Z,98133.13
2018-11-26T12:59:01.786Z,98132.34
2018-11-26T13:01:29.095Z,98134.97
2018-11-26T13:03:56.455Z,98144.17
2018-11-26T13:06:23.914Z,98136.30
2018-11-26T13:08:51.426Z,98143.67
2018-11-26T13:11:18.665Z,98144.20
2018-11-26T13:13:46.045Z,98142.06
2018-11-26T13:16:13.368Z,98139.44
2018-11-26T13:18:41.755Z,98135.51
2018-11-26T13:21:09.150Z,98139.71
2018-11-26T13:23:36.473Z,98142.61
2018-11-26T13:26:04.556Z,98144.70
2018-11-26T13:28:32.025Z,98139.70
2018-11-26T13:30:59.431Z,98143.91
2018-11-26T13:33:27.729Z,98148.40
2018-11-26T13:35:55.076Z,98145.48
2018-11-26T13:38:23.127Z,98144.46
2018-11-26T13:40:50.553Z,98150.75
2018-11-26T13:43:17.799Z,98144.72
2018-11-26T13:45:46.991Z,98147.09
2018-11-26T13:48:16.322Z,98147.09
2018-11-26T13:50:49.074Z,98151.28
2018-11-26T13:53:16.726Z,98145.50
2018-11-26T13:55:44.212Z,98143.91
2018-11-26T13:58:11.800Z,98151.55
2018-11-26T14:00:40.421Z,98152.09
2018-11-26T14:03:07.810Z,98152.59
2018-11-26T14:05:35.300Z,98147.86
2018-11-26T14:08:02.913Z,98156.03
2018-11-26T14:10:31.172Z,98161.27
2018-11-26T14:13:08.147Z,98158.38
2018-11-26T14:15:35.692Z,98165.75
2018-11-26T14:18:03.034Z,98167.84
2018-11-26T14:20:31.106Z,98171.00
2018-11-26T14:22:58.618Z,98174.42
2018-11-26T14:25:26.080Z,98165.47
2018-11-26T14:27:53.607Z,98172.84
2018-11-26T14:30:23.229Z,98178.91
2018-11-26T14:32:50.660Z,98175.73
2018-11-26T14:35:18.354Z,98179.41
2018-11-26T14:37:50.083Z,98177.84
2018-11-26T14:40:19.919Z,98182.31
2018-11-26T14:42:47.651Z,98184.69
2018-11-26T14:45:14.803Z,98185.20
2018-11-26T14:47:42.582Z,98189.94
2018-11-26T14:50:12.111Z,98197.55
2018-11-26T14:52:39.672Z,98191.24
2018-11-26T14:55:11.997Z,98200.18
2018-11-26T14:57:39.269Z,98192.05
2018-11-26T15:00:12.856Z,98199.41
2018-11-26T15:02:40.204Z,98207.30
2018-11-26T15:05:07.668Z,98204.41
2018-11-26T15:07:34.923Z,98212.02
2018-11-26T15:10:04.448Z,98210.97
2018-11-26T15:12:32.010Z,98212.83
2018-11-26T15:14:59.238Z,98225.70
2018-11-26T15:17:26.621Z,98217.80
2018-11-26T15:19:53.824Z,98226.22
2018-11-26T15:22:21.111Z,98228.33
2018-11-26T15:24:49.456Z,98232.54
2018-11-26T15:27:16.809Z,98240.96
2018-11-26T15:29:44.078Z,98241.98
2018-11-26T15:32:11.356Z,98243.30
2018-11-26T15:34:38.763Z,98240.67
2018-11-26T15:37:05.977Z,98249.89
2018-11-26T15:39:33.238Z,98241.22
2018-11-26T15:42:01.594Z,98247.52
2018-11-26T15:44:28.949Z,98251.75
2018-11-26T15:46:56.404Z,98248.32
2018-11-26T15:49:24.253Z,98245.95
2018-11-26T15:51:52.760Z,98247.80
2018-11-26T15:54:20.167Z,98251.73
2018-11-26T15:56:47.365Z,98254.89
2018-11-26T15:59:14.607Z,98257.25
2018-11-26T16:01:41.939Z,98259.90
2018-11-26T16:04:09.960Z,98261.98
2018-11-26T16:06:38.418Z,98267.52
2018-11-26T16:09:08.650Z,98267.23
2018-11-26T16:11:36.510Z,98265.67
2018-11-26T16:14:03.773Z,98271.47
2018-11-26T16:16:31.168Z,98279.08
2018-11-26T16:18:59.166Z,98276.20
2018-11-26T16:21:26.407Z,98283.56
2018-11-26T16:23:53.930Z,98282.48
2018-11-26T16:26:21.164Z,98290.12
2018-11-26T16:28:48.874Z,98288.28
2018-11-26T16:31:16.372Z,98289.86
2018-11-26T16:33:43.894Z,98293.81
2018-11-26T16:36:11.384Z,98293.83
2018-11-26T16:38:39.164Z,98294.34
2018-11-26T16:41:06.425Z,98291.66
2018-11-26T16:43:33.938Z,98297.44
2018-11-26T16:46:01.277Z,98298.78
2018-11-26T16:48:28.756Z,98302.75
2018-11-26T16:50:56.043Z,98301.42
2018-11-26T16:53:23.395Z,98303.27
2018-11-26T16:55:51.152Z,98305.34
2018-11-26T16:58:18.718Z,98289.80
2018-11-26T17:00:46.674Z,98309.30
2018-11-26T17:03:14.013Z,98316.11
2018-11-26T17:05:41.868Z,98316.88
2018-11-26T17:08:11.343Z,98323.73
2018-11-26T17:10:39.810Z,98325.04
2018-11-26T17:13:08.134Z,98323.73
2018-11-26T17:15:36.585Z,98323.71
2018-11-26T17:18:04.371Z,98328.17
2018-11-26T17:20:31.924Z,98326.35
2018-11-26T17:22:59.246Z,98327.09
2018-11-26T17:25:26.671Z,98328.94
2018-11-26T17:27:54.151Z,98325.80
2018-11-26T17:30:23.288Z,98327.66
2018-11-26T17:32:52.126Z,98326.34
2018-11-26T17:35:19.660Z,98329.47
2018-11-26T17:37:47.014Z,98332.63
2018-11-26T17:40:17.754Z,98334.73
2018-11-26T17:42:45.150Z,98338.44
2018-11-26T17:45:13.418Z,98337.89
2018-11-26T17:47:42.299Z,98346.81
2018-11-26T17:50:18.171Z,98342.05
2018-11-26T17:52:45.822Z,98349.13
2018-11-26T17:55:13.407Z,98357.29
2018-11-26T17:57:41.356Z,98353.61
2018-11-26T18:00:17.271Z,98358.87
2018-11-26T18:02:45.489Z,98356.97
2018-11-26T18:05:14.493Z,98360.68
2018-11-26T18:07:42.701Z,98366.45
2018-11-26T18:10:11.879Z,98364.84
2018-11-26T18:12:39.335Z,98374.56
2018-11-26T18:15:10.049Z,98375.66
2018-11-26T18:17:37.419Z,98386.20
2018-11-26T18:20:08.788Z,98381.41
2018-11-26T18:22:36.099Z,98389.28
2018-11-26T18:25:03.521Z,98373.73
2018-11-26T18:27:31.007Z,98392.61
2018-11-26T18:29:58.267Z,98396.02
2018-11-26T18:32:25.505Z,98403.65
2018-11-26T18:34:52.812Z,98400.50
2018-11-26T18:37:20.131Z,98407.87
2018-11-26T18:39:47.505Z,98412.62
2018-11-26T18:42:15.003Z,98412.38
2018-11-26T18:44:42.907Z,98408.97
2018-11-26T18:47:10.197Z,98416.05
2018-11-26T18:49:38.223Z,98410.56
2018-11-26T18:52:05.683Z,98419.22
2018-11-26T18:54:32.981Z,98417.66
2018-11-26T18:57:00.245Z,98424.22
2018-11-26T18:59:27.493Z,98427.38
2018-11-26T19:01:54.762Z,98426.58
2018-11-26T19:04:22.145Z,98433.95
2018-11-26T19:06:50.261Z,98430.31
2018-11-26T19:09:17.824Z,98435.52
2018-11-26T19:11:45.081Z,98434.67
2018-11-26T19:14:14.528Z,98435.20
2018-11-26T19:16:46.538Z,98442.05
2018-11-26T19:19:14.055Z,98441.26
2018-11-26T19:21:41.260Z,98444.36
2018-11-26T19:24:08.502Z,98445.46
2018-11-26T19:26:35.958Z,98454.61
2018-11-26T19:29:03.522Z,98455.85
2018-11-26T19:31:30.756Z,98461.91
2018-11-26T19:33:59.214Z,98457.23
2018-11-26T19:36:26.514Z,98462.56
2018-11-26T19:38:54.159Z,98458.05
2018-11-26T19:41:21.522Z,98467.27
2018-11-26T19:43:48.992Z,98473.32
2018-11-26T19:46:16.548Z,98474.59
2018-11-26T19:48:43.901Z,98476.44
2018-11-26T19:51:11.352Z,98479.83
2018-11-26T19:53:38.823Z,98488.78
2018-11-26T19:56:06.063Z,98491.22
2018-11-26T19:58:33.446Z,98484.98
2018-11-26T20:01:00.938Z,98495.93
2018-11-26T20:03:32.265Z,98490.94
2018-11-26T20:06:13.017Z,98501.80
2018-11-26T20:08:41.172Z,98502.18
2018-11-26T20:11:08.707Z,98510.04
2018-11-26T20:13:36.193Z,98505.77
2018-11-26T20:16:04.234Z,98474.59
2018-11-26T20:18:32.130Z,98512.88
2018-11-26T20:20:59.381Z,98521.82
2018-11-26T20:23:26.711Z,98524.63
2018-11-26T20:25:54.110Z,98530.83
2018-11-26T20:28:22.096Z,98535.00
2018-11-26T20:30:49.486Z,98533.52
2018-11-26T20:33:17.185Z,98539.83
2018-11-26T20:35:44.784Z,98542.83
2018-11-26T20:38:13.944Z,98541.31
2018-11-26T20:40:42.046Z,98550.42
2018-11-26T20:43:10.373Z,98556.60
2018-11-26T20:45:38.976Z,98558.23
2018-11-26T20:48:07.062Z,98568.03
2018-11-26T20:50:34.599Z,98573.50
2018-11-26T20:53:02.089Z,98568.92
2018-11-26T20:55:31.640Z,98569.79
2018-11-26T20:57:58.907Z,98577.21
2018-11-26T21:00:27.496Z,98576.05
2018-11-26T21:03:02.742Z,98576.67
2018-11-26T21:05:30.072Z,98585.89
2018-11-26T21:07:57.760Z,98585.49
2018-11-26T21:10:25.178Z,98590.16
2018-11-26T21:12:52.795Z,98592.70
2018-11-26T21:15:21.188Z,98588.36
2018-11-26T21:17:55.666Z,98588.39
2018-11-26T21:20:25.054Z,98592.27
2018-11-26T21:22:52.620Z,98601.81
2018-11-26T21:25:20.038Z,98596.86
2018-11-26T21:27:47.532Z,98596.09
2018-11-26T21:30:16.463Z,98599.13
2018-11-26T21:32:44.799Z,98479.58
2018-11-26T21:35:13.350Z,98601.84
2018-11-26T21:37:41.783Z,98605.57
2018-11-26T21:40:11.321Z,98610.56
2018-11-26T21:42:38.573Z,98609.47
2018-11-26T21:45:10.636Z,98613.98
2018-11-26T21:47:38.220Z,98364.25
2018-11-26T21:50:08.178Z,98617.27
2018-11-26T21:52:35.528Z,98617.49
2018-11-26T21:55:02.974Z,98617.60
2018-11-26T21:57:30.655Z,98612.61
2018-11-26T21:59:58.375Z,98618.98
2018-11-26T22:02:25.814Z,98618.22
2018-11-26T22:04:53.215Z,98618.55
2018-11-26T22:07:20.615Z,98619.78
2018-11-26T22:09:48.257Z,98626.93
2018-11-26T22:12:15.746Z,98622.15
2018-11-26T22:14:43.304Z,98626.05
2018-11-26T22:17:11.308Z,98630.91
2018-11-26T22:19:38.798Z,98631.12
2018-11-26T22:22:06.214Z,98636.84
2018-11-26T22:24:33.637Z,98634.50
2018-11-26T22:27:00.932Z,98639.05
2018-11-26T22:29:28.594Z,98642.77
2018-11-26T22:31:55.968Z,98647.38
2018-11-26T22:34:23.377Z,98641.83
2018-11-26T22:36:50.811Z,98647.81
2018-11-26T22:39:24.831Z,98657.53
2018-11-26T22:41:52.202Z,98661.42
2018-11-26T22:44:19.528Z,98663.34
2018-11-26T22:46:46.697Z,98664.81
2018-11-26T22:49:13.883Z,98661.47
2018-11-26T22:51:41.159Z,98660.45
2018-11-26T22:54:08.478Z,98660.16
2018-11-26T22:56:35.736Z,98664.31
2018-11-26T22:59:03.240Z,98662.56
2018-11-26T23:01:30.563Z,98664.69
2018-11-26T23:03:57.775Z,98677.43
2018-11-26T23:06:25.028Z,98681.09
2018-11-26T23:08:52.929Z,98683.52
2018-11-26T23:11:20.431Z,98692.56
2018-11-26T23:13:47.703Z,98698.58
2018-11-26T23:16:15.093Z,98698.28
2018-11-26T23:18:47.667Z,98701.45
2018-11-26T23:21:16.142Z,98701.80
2018-11-26T23:23:49.235Z,98700.23
2018-11-26T23:26:18.441Z,98703.02
2018-11-26T23:28:45.689Z,98701.84
2018-11-26T23:31:12.967Z,98707.34
2018-11-26T23:33:40.255Z,98700.44
2018-11-26T23:36:08.431Z,98694.04
2018-11-26T23:38:35.805Z,98703.11
2018-11-26T23:41:03.149Z,98703.69
2018-11-26T23:43:31.032Z,98701.77
2018-11-26T23:45:58.286Z,98704.24
2018-11-26T23:48:25.605Z,98704.44
2018-11-26T23:50:52.963Z,98669.87
2018-11-26T23:53:20.349Z,98713.91
2018-11-26T23:55:47.898Z,98716.29
2018-11-26T23:58:15.798Z,98721.69
